North Haven, Connecticut
Current Conditions -  °F | °C
As of 12:53 AM on Thursday 27 Nov 2014 (Local Time) from KHVN Reporting Station
Overcast Overcast  
Wind Chill: 32°   Ceiling: 6000
Heat Index: 39°   Visibility: 10mi
Dew Point: 33°   Wind: 10mph
Humidity: 79%   Direction: 340°NNW
Pressure: 29.77"   Gusts: NA
Location:  41.39°N, 72.86°W
Report Text: KHVN 270553Z AUTO 34009KT 10SM FEW016 OVC060 04/01 A2977 RMK AO2 RAE22 SLP081 P0000 60007 T00390006 10039 20028 53017
Loading
Personal Weather Stations






























Interactive Weather Map New forecast layout! Learn more

10-Day Weather Forecast

Advertisements
Track Severe Weather on mobile